createdAt,value
2023-10-26T00:04:13.613Z,12.80
2023-10-26T00:10:56.498Z,12.80
2023-10-26T00:17:39.785Z,12.80
2023-10-26T00:24:22.322Z,12.80
2023-10-26T00:31:04.789Z,12.90
2023-10-26T00:37:47.241Z,13.00
2023-10-26T00:44:29.714Z,12.90
2023-10-26T00:51:13.025Z,12.80
2023-10-26T00:57:56.940Z,12.70
2023-10-26T01:04:39.516Z,12.70
2023-10-26T01:11:22.955Z,12.40
2023-10-26T01:18:05.501Z,12.40
2023-10-26T01:24:48.385Z,12.30
2023-10-26T01:31:30.970Z,12.20
2023-10-26T01:38:14.181Z,12.20
2023-10-26T01:44:56.560Z,12.30
2023-10-26T01:51:40.000Z,12.40
2023-10-26T01:58:22.327Z,12.40
2023-10-26T02:05:05.188Z,12.30
2023-10-26T02:11:47.797Z,12.10
2023-10-26T02:18:33.022Z,12.00
2023-10-26T02:25:16.194Z,11.90
2023-10-26T02:31:58.693Z,12.00
2023-10-26T02:38:41.230Z,12.00
2023-10-26T02:45:23.452Z,11.90
2023-10-26T02:52:06.297Z,11.80
2023-10-26T02:58:48.532Z,11.70
2023-10-26T03:05:31.404Z,11.60
2023-10-26T03:12:13.825Z,11.50
2023-10-26T03:18:56.109Z,11.40
2023-10-26T03:25:38.689Z,11.30
2023-10-26T03:32:21.154Z,11.50
2023-10-26T03:39:03.908Z,11.60
2023-10-26T03:45:46.605Z,11.60
2023-10-26T03:52:28.966Z,11.50
2023-10-26T03:59:11.591Z,11.40
2023-10-26T04:05:54.088Z,11.30
2023-10-26T04:12:36.552Z,11.10
2023-10-26T04:19:18.997Z,11.00
2023-10-26T04:26:01.476Z,10.90
2023-10-26T04:32:43.986Z,10.90
2023-10-26T04:39:26.547Z,10.80
2023-10-26T04:46:11.378Z,10.90
2023-10-26T04:52:54.233Z,10.80
2023-10-26T04:59:36.660Z,10.90
2023-10-26T05:06:19.346Z,10.90
2023-10-26T05:13:01.755Z,11.00
2023-10-26T05:19:44.223Z,11.00
2023-10-26T05:26:26.738Z,10.90
2023-10-26T05:33:09.437Z,10.70
2023-10-26T05:39:51.931Z,10.80
2023-10-26T05:46:34.909Z,10.90
2023-10-26T05:53:17.275Z,10.90
2023-10-26T05:59:59.727Z,11.00
2023-10-26T06:06:42.071Z,11.20
2023-10-26T06:13:25.165Z,11.30
2023-10-26T06:20:08.546Z,11.40
2023-10-26T06:26:51.327Z,11.50
2023-10-26T06:33:34.172Z,11.50
2023-10-26T06:40:16.585Z,11.70
2023-10-26T06:46:58.960Z,11.80
2023-10-26T06:53:41.282Z,11.90
2023-10-26T07:00:23.717Z,11.90
2023-10-26T07:07:06.217Z,12.20
2023-10-26T07:13:48.619Z,12.40
2023-10-26T07:20:31.027Z,12.60
2023-10-26T07:27:19.224Z,12.70
2023-10-26T07:34:01.634Z,13.00
2023-10-26T07:40:54.643Z,13.10
2023-10-26T07:47:37.147Z,13.30
2023-10-26T07:54:19.586Z,13.20
2023-10-26T08:01:09.848Z,13.10
2023-10-26T08:07:53.333Z,13.00
2023-10-26T08:16:09.064Z,13.10
2023-10-26T08:21:38.058Z,13.00
2023-10-26T08:28:20.808Z,13.30
2023-10-26T08:35:04.242Z,13.60
2023-10-26T08:41:51.225Z,13.70
2023-10-26T08:48:35.390Z,13.90
2023-10-26T08:55:18.198Z,14.00
2023-10-26T09:02:00.987Z,13.90
2023-10-26T09:08:43.998Z,13.80
2023-10-26T09:15:26.656Z,14.00
2023-10-26T09:22:13.759Z,14.10
2023-10-26T09:28:57.118Z,13.90
2023-10-26T09:35:39.663Z,13.80
2023-10-26T09:42:22.115Z,13.80
2023-10-26T09:49:04.977Z,13.80
2023-10-26T09:55:49.985Z,13.70
2023-10-26T10:02:32.569Z,13.50
2023-10-26T10:09:17.244Z,13.10
2023-10-26T10:15:59.795Z,12.80
2023-10-26T10:22:46.281Z,12.60
2023-10-26T10:29:28.887Z,12.60
2023-10-26T10:36:11.276Z,12.30
2023-10-26T10:42:53.803Z,12.60
2023-10-26T10:49:36.344Z,12.80
2023-10-26T10:56:18.882Z,13.20
2023-10-26T11:03:01.327Z,13.40
2023-10-26T11:09:46.267Z,13.60
2023-10-26T11:16:28.789Z,13.70
2023-10-26T11:23:13.211Z,14.00
2023-10-26T11:30:05.622Z,14.70
2023-10-26T11:36:48.467Z,14.80
2023-10-26T11:43:35.638Z,14.90
2023-10-26T11:50:28.645Z,14.90
2023-10-26T11:57:11.032Z,14.80
2023-10-26T12:03:53.518Z,15.20
2023-10-26T12:10:36.183Z,15.50
2023-10-26T12:17:18.918Z,16.00
2023-10-26T12:24:01.429Z,16.50
2023-10-26T12:30:44.084Z,17.00
2023-10-26T12:37:26.844Z,17.40
2023-10-26T12:44:09.666Z,17.30
2023-10-26T12:50:52.356Z,16.90
2023-10-26T12:57:34.967Z,17.10
2023-10-26T13:04:17.871Z,17.30
2023-10-26T13:11:00.465Z,17.00
2023-10-26T13:17:43.043Z,17.00
2023-10-26T13:24:25.414Z,16.90
2023-10-26T13:31:08.067Z,16.60
2023-10-26T13:37:51.441Z,16.30
2023-10-26T13:44:33.910Z,16.50
2023-10-26T13:51:20.049Z,16.70
2023-10-26T13:58:03.016Z,16.60
2023-10-26T14:04:46.185Z,16.80
2023-10-26T14:11:30.457Z,16.50
2023-10-26T14:18:12.910Z,16.40
2023-10-26T14:24:55.847Z,16.30
2023-10-26T14:31:38.411Z,16.30
2023-10-26T14:38:20.956Z,16.30
2023-10-26T14:45:03.742Z,16.10
2023-10-26T14:51:46.225Z,16.00
2023-10-26T15:05:11.426Z,15.70
2023-10-26T15:11:57.009Z,15.70
2023-10-26T15:18:41.357Z,15.70
2023-10-26T15:25:24.288Z,15.80
2023-10-26T15:32:07.228Z,15.80
2023-10-26T15:38:50.126Z,15.70
2023-10-26T15:45:33.052Z,15.70
2023-10-26T15:52:18.734Z,15.60
2023-10-26T15:59:01.111Z,15.60
2023-10-26T16:05:44.028Z,15.40
2023-10-26T16:12:27.034Z,15.30
2023-10-26T16:19:10.370Z,15.20
2023-10-26T16:25:54.594Z,15.10
2023-10-26T16:32:37.420Z,14.90
2023-10-26T16:39:20.259Z,15.00
2023-10-26T16:46:03.193Z,14.90
2023-10-26T16:52:46.731Z,14.80
2023-10-26T16:59:29.557Z,14.70
2023-10-26T17:06:12.121Z,14.80
2023-10-26T17:12:54.919Z,14.70
2023-10-26T17:19:37.320Z,14.70
2023-10-26T17:26:20.074Z,14.70
2023-10-26T17:33:02.690Z,14.70
2023-10-26T17:39:45.513Z,14.60
2023-10-26T17:46:28.711Z,14.50
2023-10-26T17:53:11.201Z,14.40
2023-10-26T17:59:53.738Z,14.50
2023-10-26T18:06:36.552Z,14.40
2023-10-26T18:13:19.270Z,14.40
2023-10-26T18:20:01.655Z,14.40
2023-10-26T18:26:44.080Z,14.30
2023-10-26T18:33:29.330Z,14.30
2023-10-26T18:40:12.343Z,14.30
2023-10-26T18:46:59.517Z,14.30
2023-10-26T18:53:42.226Z,14.30
2023-10-26T19:00:27.281Z,14.20
2023-10-26T19:07:14.447Z,14.00
2023-10-26T19:14:02.690Z,12.40
2023-10-26T19:20:45.505Z,13.90
2023-10-26T19:27:30.556Z,13.90
2023-10-26T19:34:13.016Z,13.90
2023-10-26T19:40:57.722Z,13.70
2023-10-26T19:47:40.875Z,13.70
2023-10-26T19:54:26.905Z,13.80
2023-10-26T20:01:15.874Z,13.60
2023-10-26T20:07:58.506Z,13.60
2023-10-26T20:14:42.103Z,13.70
2023-10-26T20:21:24.484Z,13.70
2023-10-26T20:28:07.066Z,13.70
2023-10-26T20:34:49.624Z,13.60
2023-10-26T20:41:32.144Z,13.60
2023-10-26T20:48:14.727Z,13.60
2023-10-26T20:54:57.302Z,13.50
2023-10-26T21:01:41.076Z,13.40
2023-10-26T21:08:23.715Z,13.30
2023-10-26T21:15:06.936Z,13.20
2023-10-26T21:21:49.480Z,13.30
2023-10-26T21:28:32.334Z,13.40
2023-10-26T21:35:14.684Z,13.20
2023-10-26T21:41:57.104Z,13.10
2023-10-26T21:48:40.507Z,13.20
2023-10-26T21:55:22.931Z,13.20
2023-10-26T22:02:08.628Z,13.10
2023-10-26T22:08:51.003Z,13.00
2023-10-26T22:15:33.518Z,13.20
2023-10-26T22:22:16.107Z,13.20
2023-10-26T22:28:58.537Z,13.20
2023-10-26T22:35:41.040Z,13.20
2023-10-26T22:42:23.821Z,13.20
2023-10-26T22:49:07.147Z,13.00
2023-10-26T22:55:51.131Z,13.00
2023-10-26T23:02:33.594Z,13.00
2023-10-26T23:09:16.672Z,13.00
2023-10-26T23:15:59.240Z,12.90
2023-10-26T23:22:41.707Z,12.80
2023-10-26T23:29:25.869Z,12.50
2023-10-26T23:36:12.857Z,12.40
2023-10-26T23:42:55.976Z,12.40
2023-10-26T23:49:38.659Z,12.50
2023-10-26T23:56:21.025Z,12.50
